createdAt,value
2022-10-10T00:00:08.421Z,100.00
2022-10-10T00:01:12.664Z,100.00
2022-10-10T00:02:16.897Z,100.00
2022-10-10T00:03:21.131Z,99.91
2022-10-10T00:04:25.478Z,99.80
2022-10-10T00:05:29.679Z,99.72
2022-10-10T00:06:33.991Z,99.61
2022-10-10T00:07:38.195Z,99.45
2022-10-10T00:08:42.429Z,99.34
2022-10-10T00:09:46.610Z,99.22
2022-10-10T00:10:50.870Z,99.16
2022-10-10T00:11:55.115Z,99.10
2022-10-10T00:12:59.302Z,99.02
2022-10-10T00:14:03.519Z,98.95
2022-10-10T00:15:07.758Z,98.97
2022-10-10T00:16:12.012Z,98.96
2022-10-10T00:17:16.282Z,98.96
2022-10-10T00:18:20.594Z,98.97
2022-10-10T00:19:24.800Z,98.95
2022-10-10T00:20:28.997Z,98.93
2022-10-10T00:21:33.241Z,98.89
2022-10-10T00:22:37.499Z,98.86
2022-10-10T00:23:41.787Z,98.80
2022-10-10T00:24:46.002Z,98.73
2022-10-10T00:25:50.226Z,98.68
2022-10-10T00:26:54.489Z,98.63
2022-10-10T00:27:58.709Z,98.58
2022-10-10T00:29:02.960Z,98.49
2022-10-10T00:30:10.202Z,98.49
2022-10-10T00:31:13.475Z,98.45
2022-10-10T00:32:17.709Z,98.41
2022-10-10T00:33:22.024Z,98.39
2022-10-10T00:34:26.314Z,98.34
2022-10-10T00:35:30.515Z,98.44
2022-10-10T00:36:34.766Z,98.50
2022-10-10T00:37:39.017Z,98.55
2022-10-10T00:38:43.260Z,98.56
2022-10-10T00:39:47.586Z,98.62
2022-10-10T00:40:51.792Z,98.65
2022-10-10T00:41:56.043Z,98.72
2022-10-10T00:43:00.270Z,98.74
2022-10-10T00:44:04.511Z,98.76
2022-10-10T00:45:08.715Z,98.80
2022-10-10T00:46:13.005Z,98.75
2022-10-10T00:47:17.178Z,98.86
2022-10-10T00:48:21.557Z,98.90
2022-10-10T00:49:25.776Z,99.02
2022-10-10T00:50:29.976Z,99.08
2022-10-10T00:51:34.199Z,99.16
2022-10-10T00:52:38.504Z,99.21
2022-10-10T00:53:42.699Z,99.30
2022-10-10T00:54:46.910Z,99.38
2022-10-10T00:55:51.150Z,99.48
2022-10-10T00:56:55.406Z,99.57
2022-10-10T00:57:59.635Z,99.62
2022-10-10T00:59:03.886Z,99.71
2022-10-10T01:00:08.109Z,99.74
2022-10-10T01:01:12.455Z,99.87
2022-10-10T01:02:16.652Z,99.91
2022-10-10T01:03:20.836Z,100.00
2022-10-10T01:04:24.971Z,100.00
2022-10-10T01:05:29.256Z,100.00
2022-10-10T01:06:33.519Z,100.00
2022-10-10T01:07:37.845Z,100.00
2022-10-10T01:08:42.078Z,100.00
2022-10-10T01:09:46.298Z,100.00
2022-10-10T01:10:50.492Z,100.00
2022-10-10T01:11:54.692Z,100.00
2022-10-10T01:12:58.911Z,100.00
2022-10-10T01:14:03.212Z,100.00
2022-10-10T01:15:07.437Z,100.00
2022-10-10T01:16:11.652Z,100.00
2022-10-10T01:17:15.891Z,100.00
2022-10-10T01:18:20.141Z,100.00
2022-10-10T01:19:24.336Z,100.00
2022-10-10T01:20:28.507Z,100.00
2022-10-10T01:21:32.861Z,100.00
2022-10-10T01:22:37.039Z,100.00
2022-10-10T01:23:41.181Z,100.00
2022-10-10T01:24:45.465Z,100.00
2022-10-10T01:25:49.689Z,100.00
2022-10-10T01:26:53.906Z,100.00
2022-10-10T01:27:58.121Z,100.00
2022-10-10T01:29:02.370Z,100.00
2022-10-10T01:30:06.602Z,100.00
2022-10-10T01:31:10.820Z,100.00
2022-10-10T01:32:15.098Z,100.00
2022-10-10T01:33:19.291Z,100.00
2022-10-10T01:34:23.495Z,100.00
2022-10-10T01:35:27.821Z,100.00
2022-10-10T01:36:31.994Z,100.00
2022-10-10T01:37:36.252Z,100.00
2022-10-10T01:38:40.495Z,100.00
2022-10-10T01:39:44.741Z,100.00
2022-10-10T01:40:48.954Z,100.00
2022-10-10T01:41:53.212Z,100.00
2022-10-10T01:42:57.525Z,100.00
2022-10-10T01:44:01.787Z,100.00
2022-10-10T01:45:05.984Z,100.00
2022-10-10T01:46:10.188Z,100.00
2022-10-10T01:47:14.404Z,100.00
2022-10-10T01:48:18.690Z,100.00
2022-10-10T01:49:22.905Z,100.00
2022-10-10T01:50:27.167Z,100.00
2022-10-10T01:51:31.373Z,100.00
2022-10-10T01:52:35.655Z,100.00
2022-10-10T01:53:39.871Z,100.00
2022-10-10T01:54:44.093Z,100.00
2022-10-10T01:55:48.314Z,100.00
2022-10-10T01:56:52.533Z,100.00
2022-10-10T01:57:56.769Z,100.00
2022-10-10T01:59:01.028Z,100.00
2022-10-10T02:00:05.244Z,100.00
2022-10-10T02:01:09.570Z,100.00
2022-10-10T02:02:13.771Z,100.00
2022-10-10T02:03:17.956Z,100.00
2022-10-10T02:04:22.153Z,100.00
2022-10-10T02:05:26.365Z,100.00
2022-10-10T02:06:30.637Z,100.00
2022-10-10T02:07:34.862Z,100.00
2022-10-10T02:08:39.122Z,100.00
2022-10-10T02:09:43.310Z,100.00
2022-10-10T02:10:47.559Z,100.00
2022-10-10T02:11:51.730Z,100.00
2022-10-10T02:12:55.989Z,100.00
2022-10-10T02:14:00.207Z,100.00
2022-10-10T02:15:04.308Z,100.00
2022-10-10T02:16:08.625Z,100.00
2022-10-10T02:17:12.740Z,100.00
2022-10-10T02:18:17.129Z,100.00
2022-10-10T02:19:21.336Z,100.00
2022-10-10T02:20:25.562Z,100.00
2022-10-10T02:21:29.772Z,100.00
2022-10-10T02:22:34.119Z,100.00
2022-10-10T02:23:38.282Z,100.00
2022-10-10T02:24:42.413Z,100.00
2022-10-10T02:25:46.698Z,100.00
2022-10-10T02:26:50.877Z,100.00
2022-10-10T02:27:55.124Z,100.00
2022-10-10T02:28:59.338Z,100.00
2022-10-10T02:30:03.565Z,100.00
2022-10-10T02:31:07.770Z,100.00
2022-10-10T02:32:12.045Z,100.00
2022-10-10T02:33:16.344Z,100.00
2022-10-10T02:34:20.591Z,100.00
2022-10-10T02:35:24.758Z,100.00
2022-10-10T02:36:28.966Z,100.00
2022-10-10T02:37:33.207Z,100.00
2022-10-10T02:38:37.460Z,100.00
2022-10-10T02:39:41.669Z,100.00
2022-10-10T02:40:45.927Z,100.00
2022-10-10T02:41:50.219Z,100.00
2022-10-10T02:42:54.647Z,100.00
2022-10-10T02:43:58.643Z,100.00
2022-10-10T02:45:02.880Z,100.00
2022-10-10T02:46:07.059Z,100.00
2022-10-10T02:47:11.227Z,100.00
2022-10-10T02:48:15.477Z,100.00
2022-10-10T02:49:19.598Z,100.00
2022-10-10T02:50:23.846Z,100.00
2022-10-10T02:51:30.428Z,100.00
2022-10-10T02:52:32.324Z,100.00
2022-10-10T02:53:36.578Z,100.00
2022-10-10T02:54:40.817Z,100.00
2022-10-10T02:55:44.906Z,100.00
2022-10-10T02:56:49.173Z,100.00
2022-10-10T02:57:53.371Z,100.00
2022-10-10T02:58:57.597Z,100.00
2022-10-10T03:00:07.969Z,100.00
2022-10-10T03:01:10.839Z,100.00
2022-10-10T03:02:14.950Z,100.00
2022-10-10T03:03:19.229Z,100.00
2022-10-10T03:04:23.364Z,100.00
2022-10-10T03:05:27.701Z,100.00
2022-10-10T03:06:31.873Z,100.00
2022-10-10T03:07:36.036Z,100.00
2022-10-10T03:08:40.248Z,100.00
2022-10-10T03:09:44.478Z,100.00
2022-10-10T03:10:48.653Z,100.00
2022-10-10T03:11:52.895Z,100.00
2022-10-10T03:12:57.088Z,100.00
2022-10-10T03:14:01.278Z,100.00
2022-10-10T03:15:09.325Z,100.00
2022-10-10T03:16:09.721Z,100.00
2022-10-10T03:17:13.824Z,100.00
2022-10-10T03:18:18.101Z,100.00
2022-10-10T03:19:22.280Z,100.00
2022-10-10T03:20:26.477Z,100.00
2022-10-10T03:21:30.699Z,100.00
2022-10-10T03:22:34.892Z,100.00
2022-10-10T03:23:39.103Z,100.00
2022-10-10T03:24:43.336Z,100.00
2022-10-10T03:25:47.573Z,100.00
2022-10-10T03:26:51.766Z,100.00
2022-10-10T03:27:56.011Z,100.00
2022-10-10T03:29:00.232Z,100.00
2022-10-10T03:30:04.441Z,100.00
2022-10-10T03:31:08.637Z,100.00
2022-10-10T03:32:12.828Z,100.00
2022-10-10T03:33:17.043Z,100.00
2022-10-10T03:34:21.257Z,100.00
2022-10-10T03:35:25.483Z,100.00
2022-10-10T03:36:29.741Z,100.00
2022-10-10T03:37:34.048Z,100.00
2022-10-10T03:38:38.207Z,100.00
2022-10-10T03:39:42.406Z,100.00
2022-10-10T03:40:46.601Z,100.00
2022-10-10T03:41:51.006Z,100.00
2022-10-10T03:42:55.057Z,100.00
2022-10-10T03:43:59.361Z,100.00
2022-10-10T03:45:03.510Z,100.00
2022-10-10T03:46:09.647Z,100.00
2022-10-10T03:47:12.048Z,100.00
2022-10-10T03:48:16.231Z,100.00
2022-10-10T03:49:20.350Z,100.00
2022-10-10T03:50:24.591Z,100.00
2022-10-10T03:51:28.909Z,100.00
2022-10-10T03:52:33.073Z,100.00
2022-10-10T03:53:37.242Z,100.00
2022-10-10T03:54:41.529Z,100.00
2022-10-10T03:55:45.727Z,100.00
2022-10-10T03:56:49.935Z,100.00
2022-10-10T03:57:54.182Z,100.00
2022-10-10T03:58:58.274Z,100.00
2022-10-10T04:00:02.561Z,100.00
2022-10-10T04:01:06.815Z,100.00
2022-10-10T04:02:11.002Z,100.00
2022-10-10T04:03:15.254Z,100.00
2022-10-10T04:04:19.496Z,100.00
2022-10-10T04:05:23.606Z,100.00
2022-10-10T04:06:27.838Z,100.00
2022-10-10T04:07:32.138Z,100.00
2022-10-10T04:08:36.317Z,100.00
2022-10-10T04:09:40.536Z,100.00
2022-10-10T04:10:44.816Z,100.00
2022-10-10T04:11:49.013Z,100.00
2022-10-10T04:12:53.564Z,100.00
2022-10-10T04:13:57.448Z,100.00
2022-10-10T04:15:01.628Z,100.00
2022-10-10T04:16:05.843Z,100.00
2022-10-10T04:17:10.048Z,100.00
2022-10-10T04:18:14.356Z,100.00
2022-10-10T04:19:18.501Z,100.00
2022-10-10T04:20:22.731Z,100.00
2022-10-10T04:21:26.929Z,100.00
2022-10-10T04:22:31.132Z,100.00
2022-10-10T04:23:35.318Z,100.00
2022-10-10T04:24:39.533Z,100.00
2022-10-10T04:25:43.782Z,100.00
2022-10-10T04:26:47.862Z,100.00
2022-10-10T04:27:52.133Z,100.00
2022-10-10T04:28:56.342Z,100.00
2022-10-10T04:30:00.577Z,100.00
2022-10-10T04:31:04.794Z,100.00
2022-10-10T04:32:08.999Z,100.00
2022-10-10T04:33:13.234Z,100.00
2022-10-10T04:34:17.470Z,100.00
2022-10-10T04:35:21.789Z,100.00
2022-10-10T04:36:25.974Z,100.00
2022-10-10T04:37:30.183Z,100.00
2022-10-10T04:38:34.396Z,100.00
2022-10-10T04:39:38.665Z,100.00
2022-10-10T04:40:42.836Z,100.00
2022-10-10T04:41:46.941Z,100.00
2022-10-10T04:42:51.661Z,100.00
2022-10-10T04:43:55.410Z,100.00
2022-10-10T04:44:59.637Z,100.00
2022-10-10T04:46:03.871Z,100.00
2022-10-10T04:47:08.059Z,100.00
2022-10-10T04:48:12.285Z,100.00
2022-10-10T04:49:16.494Z,100.00
2022-10-10T04:50:20.747Z,99.99
2022-10-10T04:51:24.962Z,99.95
2022-10-10T04:52:29.309Z,99.89
2022-10-10T04:53:33.503Z,99.88
2022-10-10T04:54:37.611Z,99.86
2022-10-10T04:55:41.888Z,99.84
2022-10-10T04:56:46.144Z,99.78
2022-10-10T04:57:50.346Z,99.73
2022-10-10T04:58:54.545Z,99.59
2022-10-10T04:59:58.761Z,99.59
2022-10-10T05:01:03.025Z,99.67
2022-10-10T05:02:07.188Z,99.71
2022-10-10T05:03:11.406Z,99.78
2022-10-10T05:04:15.622Z,99.84
2022-10-10T05:05:19.829Z,99.90
2022-10-10T05:06:24.035Z,99.94
2022-10-10T05:07:28.258Z,100.00
2022-10-10T05:08:32.389Z,99.96
2022-10-10T05:09:36.760Z,99.96
2022-10-10T05:10:40.902Z,100.00
2022-10-10T05:11:45.124Z,99.89
2022-10-10T05:12:49.778Z,99.82
2022-10-10T05:13:53.469Z,99.75
2022-10-10T05:14:57.719Z,99.44
2022-10-10T05:16:01.930Z,99.40
2022-10-10T05:17:06.226Z,99.39
2022-10-10T05:18:10.324Z,99.43
2022-10-10T05:19:14.613Z,99.46
2022-10-10T05:20:18.850Z,99.47
2022-10-10T05:21:23.082Z,99.46
2022-10-10T05:22:27.332Z,99.35
2022-10-10T05:23:31.556Z,99.42
2022-10-10T05:24:35.790Z,99.41
2022-10-10T05:25:40.009Z,99.48
2022-10-10T05:26:44.244Z,99.41
2022-10-10T05:27:48.448Z,99.43
2022-10-10T05:28:55.675Z,99.41
2022-10-10T05:29:58.950Z,99.38
2022-10-10T05:31:03.187Z,99.28
2022-10-10T05:32:10.311Z,99.24
2022-10-10T05:33:11.620Z,99.25
2022-10-10T05:34:15.957Z,99.36
2022-10-10T05:35:20.117Z,99.40
2022-10-10T05:36:24.339Z,99.51
2022-10-10T05:37:28.560Z,99.68
2022-10-10T05:38:32.775Z,99.94
2022-10-10T05:39:37.005Z,100.00
2022-10-10T05:40:41.216Z,100.00
2022-10-10T05:41:45.431Z,100.00
2022-10-10T05:42:50.010Z,100.00
2022-10-10T05:43:53.814Z,100.00
2022-10-10T05:44:58.049Z,100.00
2022-10-10T05:46:02.297Z,100.00
2022-10-10T05:47:06.475Z,100.00
2022-10-10T05:48:10.691Z,100.00
2022-10-10T05:49:15.009Z,100.00
2022-10-10T05:50:19.207Z,100.00
2022-10-10T05:51:23.373Z,100.00
2022-10-10T05:52:27.616Z,100.00
2022-10-10T05:53:31.891Z,100.00
2022-10-10T05:54:36.045Z,100.00
2022-10-10T05:55:40.331Z,100.00
2022-10-10T05:56:44.500Z,100.00
2022-10-10T05:57:48.744Z,100.00
2022-10-10T05:58:52.957Z,100.00
2022-10-10T05:59:57.176Z,100.00
2022-10-10T06:01:01.371Z,100.00
2022-10-10T06:02:05.673Z,100.00
2022-10-10T06:03:09.835Z,100.00
2022-10-10T06:04:14.088Z,100.00
2022-10-10T06:05:18.246Z,100.00
2022-10-10T06:06:22.455Z,100.00
2022-10-10T06:07:36.083Z,100.00
2022-10-10T06:08:30.857Z,100.00
2022-10-10T06:09:35.070Z,100.00
2022-10-10T06:10:39.281Z,100.00
2022-10-10T06:11:43.540Z,100.00
2022-10-10T06:12:48.017Z,100.00
2022-10-10T06:13:51.990Z,100.00
2022-10-10T06:14:56.270Z,100.00
2022-10-10T06:16:00.580Z,100.00
2022-10-10T06:17:04.765Z,100.00
2022-10-10T06:18:08.898Z,100.00
2022-10-10T06:19:15.128Z,100.00
2022-10-10T06:20:17.444Z,100.00
2022-10-10T06:21:21.525Z,100.00
2022-10-10T06:22:25.816Z,100.00
2022-10-10T06:23:29.995Z,100.00
2022-10-10T06:24:34.215Z,100.00
2022-10-10T06:25:41.184Z,100.00
2022-10-10T06:26:42.654Z,100.00
2022-10-10T06:27:46.875Z,100.00
2022-10-10T06:28:51.097Z,100.00
2022-10-10T06:29:55.328Z,100.00
2022-10-10T06:30:59.558Z,100.00
2022-10-10T06:32:03.704Z,100.00
2022-10-10T06:33:08.017Z,100.00
2022-10-10T06:34:12.218Z,100.00
2022-10-10T06:35:16.434Z,100.00
2022-10-10T06:36:20.639Z,100.00
2022-10-10T06:37:24.881Z,100.00
2022-10-10T06:38:29.121Z,100.00
2022-10-10T06:39:33.324Z,100.00
2022-10-10T06:40:37.573Z,100.00
2022-10-10T06:41:41.650Z,100.00
2022-10-10T06:42:45.928Z,100.00
2022-10-10T06:43:50.131Z,100.00
2022-10-10T06:44:54.338Z,100.00
2022-10-10T06:45:58.593Z,100.00
2022-10-10T06:47:02.799Z,100.00
2022-10-10T06:48:06.991Z,100.00
2022-10-10T06:49:11.258Z,100.00
2022-10-10T06:50:15.584Z,100.00
2022-10-10T06:51:19.737Z,100.00
2022-10-10T06:52:23.986Z,100.00
2022-10-10T06:53:28.200Z,100.00
2022-10-10T06:54:32.445Z,100.00
2022-10-10T06:55:36.592Z,100.00
2022-10-10T06:56:40.957Z,100.00
2022-10-10T06:57:45.164Z,100.00
2022-10-10T06:58:49.382Z,100.00
2022-10-10T06:59:53.642Z,100.00
2022-10-10T07:00:57.867Z,99.91
2022-10-10T07:02:02.078Z,99.84
2022-10-10T07:03:06.426Z,99.76
2022-10-10T07:04:10.612Z,99.75
2022-10-10T07:05:14.704Z,99.70
2022-10-10T07:06:18.968Z,99.69
2022-10-10T07:07:23.150Z,99.77
2022-10-10T07:08:27.404Z,99.66
2022-10-10T07:09:31.627Z,99.66
2022-10-10T07:10:35.858Z,99.67
2022-10-10T07:11:40.050Z,99.60
2022-10-10T07:12:45.147Z,99.57
2022-10-10T07:13:48.505Z,99.48
2022-10-10T07:14:52.813Z,99.43
2022-10-10T07:15:57.004Z,99.36
2022-10-10T07:17:01.227Z,99.38
2022-10-10T07:18:05.454Z,99.33
2022-10-10T07:19:09.715Z,99.32
2022-10-10T07:20:13.935Z,99.31
2022-10-10T07:21:18.161Z,99.29
2022-10-10T07:22:22.385Z,99.23
2022-10-10T07:23:26.600Z,99.18
2022-10-10T07:24:30.879Z,99.09
2022-10-10T07:25:35.091Z,99.03
2022-10-10T07:26:39.367Z,99.04
2022-10-10T07:27:43.665Z,98.98
2022-10-10T07:28:47.915Z,98.94
2022-10-10T07:29:52.095Z,98.98
2022-10-10T07:30:59.322Z,98.94
2022-10-10T07:32:02.635Z,98.88
2022-10-10T07:33:06.957Z,98.78
2022-10-10T07:34:11.175Z,98.70
2022-10-10T07:35:15.382Z,98.72
2022-10-10T07:36:19.816Z,98.66
2022-10-10T07:37:23.898Z,98.64
2022-10-10T07:38:28.160Z,98.63
2022-10-10T07:39:32.419Z,98.63
2022-10-10T07:40:36.657Z,98.61
2022-10-10T07:41:40.904Z,98.62
2022-10-10T07:42:45.111Z,98.61
2022-10-10T07:43:49.383Z,98.56
2022-10-10T07:44:53.621Z,98.50
2022-10-10T07:45:57.912Z,98.33
2022-10-10T07:47:02.108Z,98.05
2022-10-10T07:48:06.342Z,97.87
2022-10-10T07:49:10.659Z,97.82
2022-10-10T07:50:14.914Z,97.73
2022-10-10T07:51:19.097Z,97.57
2022-10-10T07:52:23.373Z,97.27
2022-10-10T07:53:27.606Z,97.08
2022-10-10T07:54:31.982Z,97.17
2022-10-10T07:55:36.170Z,97.20
2022-10-10T07:56:40.485Z,97.23
2022-10-10T07:57:52.496Z,97.16
2022-10-10T07:58:51.005Z,96.99
2022-10-10T07:59:55.275Z,96.88
2022-10-10T08:00:59.489Z,96.63
2022-10-10T08:02:03.869Z,96.61
2022-10-10T08:03:11.734Z,96.66
2022-10-10T08:04:12.243Z,96.53
2022-10-10T08:05:16.498Z,96.52
2022-10-10T08:06:20.758Z,96.40
2022-10-10T08:07:25.021Z,96.33
2022-10-10T08:08:29.360Z,96.36
2022-10-10T08:09:33.589Z,96.23
2022-10-10T08:10:37.913Z,96.22
2022-10-10T08:11:42.131Z,96.04
2022-10-10T08:12:46.371Z,95.92
2022-10-10T08:13:50.679Z,95.79
2022-10-10T08:14:54.903Z,95.77
2022-10-10T08:15:59.171Z,95.78
2022-10-10T08:17:03.507Z,95.91
2022-10-10T08:18:07.698Z,95.94
2022-10-10T08:20:16.220Z,96.08
2022-10-10T08:21:20.539Z,96.05
2022-10-10T08:22:24.743Z,96.02
2022-10-10T08:23:28.999Z,96.02
2022-10-10T08:24:33.227Z,95.82
2022-10-10T08:25:37.452Z,95.57
2022-10-10T08:26:41.771Z,95.58
2022-10-10T08:27:46.033Z,95.62
2022-10-10T08:28:50.426Z,95.68
2022-10-10T08:29:54.535Z,95.77
2022-10-10T08:31:00.176Z,95.87
2022-10-10T08:32:02.957Z,95.93
2022-10-10T08:33:07.224Z,95.96
2022-10-10T08:34:11.473Z,96.03
2022-10-10T08:35:15.737Z,96.05
2022-10-10T08:36:19.959Z,96.09
2022-10-10T08:37:28.771Z,96.10
2022-10-10T08:38:28.474Z,95.98
2022-10-10T08:39:32.813Z,95.94
2022-10-10T08:40:37.087Z,95.83
2022-10-10T08:41:41.290Z,95.73
2022-10-10T08:42:50.221Z,95.75
2022-10-10T08:43:49.842Z,95.78
2022-10-10T08:44:55.138Z,95.76
2022-10-10T08:45:59.030Z,95.77
2022-10-10T08:47:03.353Z,95.74
2022-10-10T08:48:07.648Z,95.85
2022-10-10T08:49:14.153Z,95.45
2022-10-10T08:50:16.144Z,95.41
2022-10-10T08:51:20.415Z,95.38
2022-10-10T08:52:24.679Z,95.24
2022-10-10T08:53:28.918Z,95.06
2022-10-10T08:54:33.144Z,95.06
2022-10-10T08:55:37.402Z,95.05
2022-10-10T08:56:41.712Z,94.90
2022-10-10T08:57:45.955Z,94.73
2022-10-10T08:58:50.269Z,94.59
2022-10-10T08:59:54.602Z,94.52
2022-10-10T09:00:58.871Z,94.47
2022-10-10T09:02:18.375Z,94.47
2022-10-10T09:03:07.328Z,94.51
2022-10-10T09:04:11.569Z,94.43
2022-10-10T09:05:15.842Z,94.30
2022-10-10T09:06:20.132Z,94.32
2022-10-10T09:07:24.386Z,94.44
2022-10-10T09:08:28.602Z,94.47
2022-10-10T09:09:32.834Z,94.36
2022-10-10T09:10:37.134Z,94.40
2022-10-10T09:11:41.449Z,94.22
2022-10-10T09:12:45.710Z,93.81
2022-10-10T09:13:49.990Z,93.84
2022-10-10T09:14:57.459Z,93.78
2022-10-10T09:15:58.495Z,93.88
2022-10-10T09:17:02.805Z,93.88
2022-10-10T09:18:07.106Z,93.92
2022-10-10T09:19:13.560Z,93.77
2022-10-10T09:20:15.657Z,93.23
2022-10-10T09:21:19.944Z,93.14
2022-10-10T09:22:24.239Z,93.12
2022-10-10T09:23:28.546Z,93.09
2022-10-10T09:24:32.818Z,93.11
2022-10-10T09:25:37.144Z,92.75
2022-10-10T09:26:41.341Z,92.69
2022-10-10T09:27:45.609Z,92.61
2022-10-10T09:28:49.938Z,92.66
2022-10-10T09:29:54.148Z,92.68
2022-10-10T09:30:58.724Z,92.64
2022-10-10T09:32:02.772Z,92.57
2022-10-10T09:33:07.086Z,92.57
2022-10-10T09:34:11.362Z,92.66
2022-10-10T09:35:15.595Z,92.74
2022-10-10T09:36:19.819Z,92.83
2022-10-10T09:37:45.839Z,92.69
2022-10-10T09:38:28.374Z,92.75
2022-10-10T09:39:32.568Z,92.80
2022-10-10T09:40:37.016Z,92.93
2022-10-10T09:41:41.286Z,93.07
2022-10-10T09:42:45.521Z,93.08
2022-10-10T09:43:49.783Z,93.14
2022-10-10T09:44:54.146Z,93.20
2022-10-10T09:45:58.356Z,93.28
2022-10-10T09:47:02.612Z,93.23
2022-10-10T09:48:07.085Z,93.14
2022-10-10T09:49:11.269Z,92.93
2022-10-10T09:50:15.564Z,92.87
2022-10-10T09:51:19.845Z,92.82
2022-10-10T09:52:24.104Z,92.54
2022-10-10T09:53:28.440Z,92.53
2022-10-10T09:54:32.690Z,92.42
2022-10-10T09:55:36.952Z,92.12
2022-10-10T09:56:41.213Z,91.95
2022-10-10T09:57:45.574Z,91.86
2022-10-10T09:58:49.825Z,91.49
2022-10-10T09:59:54.159Z,91.42
2022-10-10T10:00:58.775Z,91.11
2022-10-10T10:02:02.726Z,91.34
2022-10-10T10:03:07.009Z,90.77
2022-10-10T10:04:23.778Z,90.60
2022-10-10T10:05:15.610Z,90.82
2022-10-10T10:06:19.920Z,90.87
2022-10-10T10:07:24.212Z,90.82
2022-10-10T10:08:28.538Z,90.57
2022-10-10T10:09:32.851Z,90.39
2022-10-10T10:10:37.136Z,90.37
2022-10-10T10:11:41.377Z,90.26
2022-10-10T10:12:45.668Z,90.08
2022-10-10T10:13:49.974Z,89.76
2022-10-10T10:14:54.226Z,89.75
2022-10-10T10:15:58.507Z,89.25
2022-10-10T10:17:02.700Z,89.46
2022-10-10T10:18:07.087Z,89.86
2022-10-10T10:19:11.367Z,90.00
2022-10-10T10:20:15.749Z,89.82
2022-10-10T10:21:19.958Z,89.35
2022-10-10T10:22:26.568Z,89.47
2022-10-10T10:23:28.546Z,89.68
2022-10-10T10:24:32.851Z,89.96
2022-10-10T10:25:37.149Z,89.94
2022-10-10T10:26:41.532Z,89.91
2022-10-10T10:27:45.874Z,89.71
2022-10-10T10:28:50.312Z,89.51
2022-10-10T10:29:54.457Z,89.37
2022-10-10T10:30:58.850Z,89.20
2022-10-10T10:32:03.103Z,88.92
2022-10-10T10:33:07.419Z,88.87
2022-10-10T10:34:11.671Z,88.78
2022-10-10T10:35:16.077Z,88.53
2022-10-10T10:36:20.297Z,88.16
2022-10-10T10:37:24.722Z,88.13
2022-10-10T10:38:29.046Z,87.87
2022-10-10T10:39:33.224Z,87.99
2022-10-10T10:40:37.696Z,88.28
2022-10-10T10:41:42.015Z,87.44
2022-10-10T10:42:46.300Z,87.68
2022-10-10T10:43:50.634Z,87.44
2022-10-10T10:44:55.053Z,87.49
2022-10-10T10:45:59.594Z,87.55
2022-10-10T10:47:03.641Z,87.21
2022-10-10T10:48:07.915Z,87.11
2022-10-10T10:49:12.204Z,86.87
2022-10-10T10:50:16.474Z,86.96
2022-10-10T10:51:20.873Z,86.60
2022-10-10T10:52:25.238Z,86.13
2022-10-10T10:53:29.678Z,86.27
2022-10-10T10:54:38.261Z,86.57
2022-10-10T10:55:39.413Z,86.95
2022-10-10T10:56:42.565Z,86.31
2022-10-10T10:58:04.664Z,85.98
2022-10-10T10:59:23.496Z,86.26
2022-10-10T11:00:21.849Z,83.33
2022-10-10T11:01:23.937Z,83.07
2022-10-10T11:02:04.749Z,84.02
2022-10-10T11:03:34.670Z,84.33
2022-10-10T11:05:20.906Z,84.40
2022-10-10T11:05:27.654Z,84.05
2022-10-10T11:06:21.667Z,83.43
2022-10-10T11:07:25.818Z,82.05
2022-10-10T11:08:29.935Z,81.65
2022-10-10T11:09:50.622Z,82.56
2022-10-10T11:10:38.724Z,83.41
2022-10-10T11:11:42.997Z,83.66
2022-10-10T11:12:47.305Z,82.91
2022-10-10T11:13:51.611Z,82.64
2022-10-10T11:14:55.923Z,81.53
2022-10-10T11:16:10.821Z,81.58
2022-10-10T11:17:04.609Z,82.00
2022-10-10T11:18:08.872Z,82.64
2022-10-10T11:19:13.242Z,82.85
2022-10-10T11:20:17.488Z,83.25
2022-10-10T11:21:21.781Z,83.70
2022-10-10T11:22:26.079Z,82.90
2022-10-10T11:23:30.454Z,83.16
2022-10-10T11:24:34.733Z,83.29
2022-10-10T11:25:39.131Z,82.99
2022-10-10T11:26:43.360Z,83.50
2022-10-10T11:27:47.750Z,83.71
2022-10-10T11:28:52.140Z,83.43
2022-10-10T11:29:56.385Z,83.08
2022-10-10T11:31:01.002Z,83.17
2022-10-10T11:32:05.143Z,82.21
2022-10-10T11:33:09.354Z,82.19
2022-10-10T11:34:13.758Z,82.19
2022-10-10T11:35:18.040Z,82.31
2022-10-10T11:36:22.463Z,81.53
2022-10-10T11:37:26.719Z,81.27
2022-10-10T11:38:31.059Z,81.24
2022-10-10T11:39:35.337Z,81.66
2022-10-10T11:40:39.648Z,81.99
2022-10-10T11:41:43.982Z,82.53
2022-10-10T11:42:48.355Z,81.58
2022-10-10T11:43:52.726Z,79.96
2022-10-10T11:44:57.003Z,80.54
2022-10-10T11:46:03.109Z,80.77
2022-10-10T11:47:05.620Z,80.17
2022-10-10T11:48:10.094Z,80.63
2022-10-10T11:49:14.473Z,81.06
2022-10-10T11:50:18.741Z,80.47
2022-10-10T11:51:23.009Z,80.41
2022-10-10T11:52:35.141Z,80.43
2022-10-10T11:53:31.666Z,80.34
2022-10-10T11:54:36.002Z,81.19
2022-10-10T11:55:40.289Z,80.97
2022-10-10T11:56:44.624Z,80.83
2022-10-10T11:57:49.030Z,81.19
2022-10-10T11:58:53.422Z,81.20
2022-10-10T11:59:57.681Z,80.93
2022-10-10T12:01:03.045Z,80.99
2022-10-10T12:02:06.994Z,80.54
2022-10-10T12:03:11.299Z,78.46
2022-10-10T12:04:15.622Z,79.27
2022-10-10T12:05:19.921Z,79.51
2022-10-10T12:06:24.302Z,77.90
2022-10-10T12:07:28.628Z,75.66
2022-10-10T12:08:32.995Z,75.67
2022-10-10T12:09:37.294Z,77.30
2022-10-10T12:10:41.596Z,77.63
2022-10-10T12:11:46.025Z,77.98
2022-10-10T12:12:50.313Z,77.52
2022-10-10T12:13:54.670Z,77.07
2022-10-10T12:14:59.163Z,75.74
2022-10-10T12:16:03.786Z,77.47
2022-10-10T12:17:07.699Z,77.98
2022-10-10T12:18:12.113Z,77.96
2022-10-10T12:19:16.436Z,77.59
2022-10-10T12:20:20.880Z,76.33
2022-10-10T12:21:25.280Z,76.51
2022-10-10T12:22:29.551Z,76.89
2022-10-10T12:23:34.080Z,76.57
2022-10-10T12:24:42.521Z,76.35
2022-10-10T12:25:42.735Z,76.17
2022-10-10T12:26:47.080Z,75.48
2022-10-10T12:27:52.601Z,75.61
2022-10-10T12:28:56.464Z,75.37
2022-10-10T12:30:00.894Z,75.08
2022-10-10T12:31:05.884Z,75.66
2022-10-10T12:32:09.548Z,75.31
2022-10-10T12:33:13.974Z,75.83
2022-10-10T12:34:18.313Z,74.79
2022-10-10T12:35:22.782Z,74.63
2022-10-10T12:36:27.064Z,74.82
2022-10-10T12:37:31.386Z,75.13
2022-10-10T12:38:35.776Z,74.35
2022-10-10T12:39:40.139Z,74.41
2022-10-10T12:40:44.418Z,74.51
2022-10-10T12:41:48.787Z,75.03
2022-10-10T12:42:53.139Z,74.35
2022-10-10T12:43:57.469Z,74.28
2022-10-10T12:45:01.796Z,74.27
2022-10-10T12:46:06.011Z,74.71
2022-10-10T12:47:11.347Z,75.53
2022-10-10T12:48:15.305Z,76.38
2022-10-10T12:49:19.587Z,76.59
2022-10-10T12:50:23.909Z,76.93
2022-10-10T12:51:28.331Z,76.91
2022-10-10T12:52:32.631Z,77.28
2022-10-10T12:53:36.963Z,77.28
2022-10-10T12:54:41.283Z,77.84
2022-10-10T12:55:45.635Z,78.24
2022-10-10T12:56:49.989Z,78.31
2022-10-10T12:57:54.231Z,78.28
2022-10-10T12:58:58.648Z,78.59
2022-10-10T13:00:03.024Z,78.70
2022-10-10T13:01:07.566Z,78.64
2022-10-10T13:02:11.573Z,78.82
2022-10-10T13:03:15.919Z,78.75
2022-10-10T13:04:20.210Z,78.97
2022-10-10T13:05:24.585Z,78.89
2022-10-10T13:06:28.862Z,79.05
2022-10-10T13:07:33.164Z,79.31
2022-10-10T13:08:37.579Z,79.40
2022-10-10T13:09:41.847Z,79.45
2022-10-10T13:10:46.162Z,79.19
2022-10-10T13:11:50.494Z,79.28
2022-10-10T13:12:54.780Z,79.17
2022-10-10T13:13:59.278Z,78.89
2022-10-10T13:15:03.592Z,78.86
2022-10-10T13:16:07.948Z,78.73
2022-10-10T13:17:12.203Z,78.57
2022-10-10T13:18:16.540Z,78.57
2022-10-10T13:19:21.015Z,78.57
2022-10-10T13:20:25.269Z,78.74
2022-10-10T13:21:29.589Z,78.53
2022-10-10T13:22:33.996Z,78.83
2022-10-10T13:23:38.403Z,79.28
2022-10-10T13:24:42.713Z,79.14
2022-10-10T13:25:46.963Z,79.16
2022-10-10T13:26:51.377Z,79.33
2022-10-10T13:27:55.678Z,79.42
2022-10-10T13:29:00.040Z,79.45
2022-10-10T13:30:04.290Z,79.35
2022-10-10T13:31:08.594Z,79.45
2022-10-10T13:32:12.984Z,79.81
2022-10-10T13:33:17.307Z,80.14
2022-10-10T13:34:24.772Z,80.45
2022-10-10T13:35:26.024Z,80.70
2022-10-10T13:36:30.412Z,80.93
2022-10-10T13:37:34.742Z,81.16
2022-10-10T13:38:39.026Z,81.13